createdAt,value
2018-09-25T00:00:31.200Z,102566.88
2018-09-25T00:03:04.680Z,102567.23
2018-09-25T00:05:38.192Z,102566.55
2018-09-25T00:08:11.684Z,102566.34
2018-09-25T00:10:45.287Z,102570.49
2018-09-25T00:13:18.873Z,102571.33
2018-09-25T00:15:52.253Z,102564.48
2018-09-25T00:18:32.728Z,102565.64
2018-09-25T00:21:06.230Z,102565.64
2018-09-25T00:23:39.614Z,102573.84
2018-09-25T00:26:13.113Z,102574.31
2018-09-25T00:28:46.521Z,102571.30
2018-09-25T00:31:19.997Z,102573.77
2018-09-25T00:33:53.400Z,102576.61
2018-09-25T00:36:26.693Z,102568.26
2018-09-25T00:39:00.298Z,102574.30
2018-09-25T00:41:33.827Z,102574.84
2018-09-25T00:44:07.173Z,102582.35
2018-09-25T00:46:40.538Z,102580.09
2018-09-25T00:49:14.145Z,102586.91
2018-09-25T00:51:47.586Z,102589.24
2018-09-25T00:54:21.148Z,102581.80
2018-09-25T00:56:54.594Z,102591.65
2018-09-25T00:59:28.154Z,102592.63
2018-09-25T01:02:01.670Z,102595.70
2018-09-25T01:04:35.049Z,102602.07
2018-09-25T01:07:08.586Z,102597.28
2018-09-25T01:09:42.072Z,102598.91
2018-09-25T01:12:15.556Z,102605.72
2018-09-25T01:14:48.961Z,102608.75
2018-09-25T01:17:22.442Z,102607.75
2018-09-25T01:19:55.749Z,102602.87
2018-09-25T01:22:29.127Z,102603.81
2018-09-25T01:25:02.738Z,102609.19
2018-09-25T01:27:36.244Z,102610.22
2018-09-25T01:30:09.985Z,102614.06
2018-09-25T01:32:43.522Z,102618.23
2018-09-25T01:35:17.045Z,102613.13
2018-09-25T01:37:50.505Z,102617.48
2018-09-25T01:40:24.076Z,102619.95
2018-09-25T01:42:57.501Z,102626.08
2018-09-25T01:45:31.021Z,102626.37
2018-09-25T01:48:04.348Z,102630.79
2018-09-25T01:50:37.813Z,102629.94
2018-09-25T01:53:11.361Z,102623.43
2018-09-25T01:55:44.798Z,102623.90
2018-09-25T01:58:18.089Z,102625.67
2018-09-25T02:00:51.316Z,102630.38
2018-09-25T02:03:24.706Z,102620.58
2018-09-25T02:05:58.384Z,102621.38
2018-09-25T02:08:31.785Z,102627.08
2018-09-25T02:11:05.065Z,102629.66
2018-09-25T02:13:38.529Z,102627.89
2018-09-25T02:16:11.969Z,102631.88
2018-09-25T02:18:45.645Z,102638.95
2018-09-25T02:21:19.208Z,102642.08
2018-09-25T02:23:52.529Z,102641.70
2018-09-25T02:26:26.067Z,102641.25
2018-09-25T02:28:59.496Z,102647.44
2018-09-25T02:31:32.950Z,102654.98
2018-09-25T02:34:06.320Z,102645.22
2018-09-25T02:36:39.756Z,102650.84
2018-09-25T02:39:14.903Z,102634.90
2018-09-25T02:41:49.017Z,102642.44
2018-09-25T02:44:22.616Z,102639.35
2018-09-25T02:46:56.104Z,102640.49
2018-09-25T02:49:29.712Z,102643.84
2018-09-25T02:52:03.085Z,102649.88
2018-09-25T02:54:36.566Z,102654.06
2018-09-25T02:57:10.004Z,102660.36
2018-09-25T02:59:43.482Z,102651.98
2018-09-25T03:02:16.900Z,102646.53
2018-09-25T03:04:50.353Z,102652.58
2018-09-25T03:07:23.927Z,102657.77
2018-09-25T03:09:57.379Z,102656.12
2018-09-25T03:12:30.624Z,102666.89
2018-09-25T03:15:03.989Z,102668.81
2018-09-25T03:17:37.516Z,102667.70
2018-09-25T03:20:11.041Z,102668.77
2018-09-25T03:22:44.372Z,102666.90
2018-09-25T03:25:17.833Z,102670.13
2018-09-25T03:27:51.170Z,102680.01
2018-09-25T03:30:24.621Z,102677.77
2018-09-25T03:32:58.091Z,102671.63
2018-09-25T03:35:31.685Z,102670.20
2018-09-25T03:38:05.029Z,102676.91
2018-09-25T03:40:38.510Z,102675.31
2018-09-25T03:43:12.108Z,102667.89
2018-09-25T03:45:45.625Z,102672.77
2018-09-25T03:48:19.142Z,102674.09
2018-09-25T03:50:52.517Z,102682.50
2018-09-25T03:53:25.912Z,102674.94
2018-09-25T03:55:59.436Z,102676.63
2018-09-25T03:58:32.955Z,102679.61
2018-09-25T04:01:06.464Z,102685.38
2018-09-25T04:03:39.857Z,102688.35
2018-09-25T04:06:13.240Z,102692.73
2018-09-25T04:08:46.627Z,102692.88
2018-09-25T04:11:20.014Z,102692.28
2018-09-25T04:13:53.398Z,102700.17
2018-09-25T04:16:26.797Z,102697.87
2018-09-25T04:19:00.123Z,102694.86
2018-09-25T04:24:06.195Z,102706.91
2018-09-25T04:26:39.623Z,102709.12
2018-09-25T04:29:13.218Z,102705.23
2018-09-25T04:31:46.681Z,102715.83
2018-09-25T04:34:20.136Z,102708.63
2018-09-25T04:36:53.640Z,102710.41
2018-09-25T04:39:27.153Z,102711.33
2018-09-25T04:42:00.649Z,102716.25
2018-09-25T04:44:34.060Z,102713.68
2018-09-25T04:47:07.544Z,102716.23
2018-09-25T04:49:41.012Z,102729.38
2018-09-25T04:52:14.429Z,102733.28
2018-09-25T04:54:47.924Z,102739.39
2018-09-25T04:57:21.321Z,102734.14
2018-09-25T04:59:54.622Z,102731.16
2018-09-25T05:02:27.984Z,102731.57
2018-09-25T05:05:01.537Z,102728.48
2018-09-25T05:07:35.045Z,102727.58
2018-09-25T05:10:08.377Z,102729.33
2018-09-25T05:12:41.821Z,102741.09
2018-09-25T05:15:15.324Z,102745.45
2018-09-25T05:17:48.664Z,102746.77
2018-09-25T05:20:22.094Z,102748.55
2018-09-25T05:22:55.364Z,102747.63
2018-09-25T05:25:28.840Z,102748.02
2018-09-25T05:28:02.441Z,102752.31
2018-09-25T05:30:35.733Z,102755.33
2018-09-25T05:33:09.108Z,102759.21
2018-09-25T05:35:42.668Z,102756.40
2018-09-25T05:38:16.081Z,102762.80
2018-09-25T05:40:49.626Z,102762.61
2018-09-25T05:43:22.917Z,102765.50
2018-09-25T05:45:56.341Z,102769.31
2018-09-25T05:48:29.883Z,102771.34
2018-09-25T05:51:03.196Z,102772.73
2018-09-25T05:53:36.717Z,102770.79
2018-09-25T05:56:10.051Z,102770.59
2018-09-25T05:58:43.573Z,102772.59
2018-09-25T06:01:17.015Z,102772.54
2018-09-25T06:03:50.443Z,102774.00
2018-09-25T06:06:23.940Z,102778.84
2018-09-25T06:08:57.360Z,102782.53
2018-09-25T06:11:30.895Z,102776.06
2018-09-25T06:14:04.389Z,102788.66
2018-09-25T06:16:37.869Z,102783.69
2018-09-25T06:19:11.203Z,102790.41
2018-09-25T06:21:44.611Z,102789.23
2018-09-25T06:24:18.141Z,102793.50
2018-09-25T06:26:51.521Z,102795.31
2018-09-25T06:29:24.909Z,102793.67
2018-09-25T06:31:58.301Z,102805.17
2018-09-25T06:34:31.896Z,102810.98
2018-09-25T06:37:05.064Z,102823.37
2018-09-25T06:39:38.413Z,102814.02
2018-09-25T06:42:11.995Z,102824.29
2018-09-25T06:44:45.501Z,102826.24
2018-09-25T06:47:18.915Z,102828.31
2018-09-25T06:49:52.376Z,102840.50
2018-09-25T06:52:26.090Z,102839.00
2018-09-25T06:54:59.643Z,102847.52
2018-09-25T06:57:33.092Z,102847.34
2018-09-25T07:00:06.481Z,102850.19
2018-09-25T07:02:39.862Z,102857.37
2018-09-25T07:05:13.264Z,102857.09
2018-09-25T07:07:46.660Z,102866.70
2018-09-25T07:10:20.104Z,102871.45
2018-09-25T07:12:53.582Z,102876.68
2018-09-25T07:15:27.107Z,102881.94
2018-09-25T07:18:00.709Z,102884.83
2018-09-25T07:20:34.101Z,102891.59
2018-09-25T07:23:07.627Z,102892.03
2018-09-25T07:25:41.157Z,102900.56
2018-09-25T07:28:14.661Z,102903.20
2018-09-25T07:30:48.178Z,102906.92
2018-09-25T07:33:21.785Z,102909.72
2018-09-25T07:35:55.116Z,102919.58
2018-09-25T07:38:28.681Z,102915.14
2018-09-25T07:41:01.992Z,102917.68
2018-09-25T07:43:35.480Z,102919.89
2018-09-25T07:46:09.008Z,102922.31
2018-09-25T07:48:42.424Z,102929.95
2018-09-25T07:51:16.073Z,102930.02
2018-09-25T07:53:49.589Z,102926.01
2018-09-25T07:56:22.928Z,102928.36
2018-09-25T07:58:56.465Z,102934.00
2018-09-25T08:01:29.834Z,102938.52
2018-09-25T08:04:03.404Z,102928.72
2018-09-25T08:06:36.897Z,102929.06
2018-09-25T08:09:13.097Z,102931.58
2018-09-25T08:11:46.749Z,102929.55
2018-09-25T08:14:20.310Z,102922.87
2018-09-25T08:16:53.821Z,102930.30
2018-09-25T08:19:27.206Z,102930.27
2018-09-25T08:22:00.736Z,102937.33
2018-09-25T08:24:34.289Z,102931.84
2018-09-25T08:27:07.616Z,102940.06
2018-09-25T08:29:41.505Z,102937.73
2018-09-25T08:32:14.875Z,102940.40
2018-09-25T08:34:48.320Z,102946.88
2018-09-25T08:37:21.654Z,102955.19
2018-09-25T08:39:55.007Z,102959.67
2018-09-25T08:42:28.548Z,102961.41
2018-09-25T08:45:02.170Z,102960.36
2018-09-25T08:47:35.734Z,102965.13
2018-09-25T08:50:09.312Z,102969.01
2018-09-25T08:52:42.674Z,102963.70
2018-09-25T08:55:16.080Z,102975.47
2018-09-25T08:57:49.517Z,102971.38
2018-09-25T09:00:22.872Z,102970.73
2018-09-25T09:02:56.389Z,102977.23
2018-09-25T09:05:29.861Z,102973.74
2018-09-25T09:08:03.285Z,102984.08
2018-09-25T09:10:36.768Z,102988.45
2018-09-25T09:13:10.197Z,102982.28
2018-09-25T09:15:43.738Z,102987.78
2018-09-25T09:18:17.235Z,102987.11
2018-09-25T09:20:50.740Z,102991.36
2018-09-25T09:23:24.306Z,102992.03
2018-09-25T09:25:57.600Z,102987.81
2018-09-25T09:28:31.124Z,102982.75
2018-09-25T09:31:04.545Z,102987.47
2018-09-25T09:33:38.012Z,102996.49
2018-09-25T09:36:11.358Z,102994.20
2018-09-25T09:38:44.773Z,102985.03
2018-09-25T09:41:18.336Z,102986.34
2018-09-25T09:43:51.888Z,102981.57
2018-09-25T09:46:25.456Z,102981.92
2018-09-25T09:48:59.008Z,102980.80
2018-09-25T09:51:32.489Z,102979.02
2018-09-25T09:54:05.831Z,102981.77
2018-09-25T09:56:39.377Z,102976.38
2018-09-25T09:59:13.129Z,102982.69
2018-09-25T10:01:46.550Z,102972.50
2018-09-25T10:04:20.112Z,102984.09
2018-09-25T10:06:53.705Z,102983.97
2018-09-25T10:09:27.042Z,102985.16
2018-09-25T10:12:00.564Z,102981.52
2018-09-25T10:14:34.153Z,102983.67
2018-09-25T10:17:07.550Z,102989.59
2018-09-25T10:19:41.053Z,102988.30
2018-09-25T10:22:14.557Z,102986.94
2018-09-25T10:24:48.165Z,102982.59
2018-09-25T10:27:21.709Z,102990.34
2018-09-25T10:29:55.160Z,102977.78
2018-09-25T10:32:28.539Z,102979.53
2018-09-25T10:35:02.086Z,102977.96
2018-09-25T10:37:35.423Z,102978.12
2018-09-25T10:40:08.952Z,102984.09
2018-09-25T10:42:42.417Z,102979.80
2018-09-25T10:45:15.781Z,102975.72
2018-09-25T10:47:49.225Z,102979.39
2018-09-25T10:50:22.779Z,102984.41
2018-09-25T10:52:56.233Z,102979.13
2018-09-25T10:55:29.694Z,102993.23
2018-09-25T10:58:03.090Z,102993.09
2018-09-25T11:00:36.469Z,102990.19
2018-09-25T11:03:10.036Z,102990.14
2018-09-25T11:05:43.274Z,102986.56
2018-09-25T11:08:16.636Z,102986.88
2018-09-25T11:10:50.209Z,102987.02
2018-09-25T11:13:23.705Z,102980.02
2018-09-25T11:15:57.077Z,102986.02
2018-09-25T11:18:30.696Z,102985.81
2018-09-25T11:21:04.084Z,102980.69
2018-09-25T11:23:37.594Z,102975.74
2018-09-25T11:26:11.097Z,102974.19
2018-09-25T11:28:44.632Z,102982.33
2018-09-25T11:31:18.080Z,102986.20
2018-09-25T11:33:51.556Z,102985.65
2018-09-25T11:36:25.066Z,102991.30
2018-09-25T11:38:58.393Z,102982.20
2018-09-25T11:41:31.873Z,102984.53
2018-09-25T11:44:05.299Z,102980.55
2018-09-25T11:46:38.708Z,102976.91
2018-09-25T11:49:12.045Z,102986.67
2018-09-25T11:51:45.470Z,102980.06
2018-09-25T11:54:19.054Z,102968.32
2018-09-25T11:56:52.457Z,102973.22
2018-09-25T11:59:25.916Z,102971.63
2018-09-25T12:01:59.440Z,102966.00
2018-09-25T12:04:32.959Z,102972.87
2018-09-25T12:07:06.377Z,102965.81
2018-09-25T12:09:39.956Z,102956.56
2018-09-25T12:12:13.404Z,102957.08
2018-09-25T12:14:46.749Z,102962.16
2018-09-25T12:17:20.198Z,102967.30
2018-09-25T12:19:53.561Z,102960.41
2018-09-25T12:22:27.150Z,102955.43
2018-09-25T12:25:00.722Z,102955.70
2018-09-25T12:27:34.216Z,102947.62
2018-09-25T12:30:07.657Z,102948.66
2018-09-25T12:32:41.090Z,102951.64
2018-09-25T12:35:14.437Z,102957.11
2018-09-25T12:37:47.865Z,102949.03
2018-09-25T12:40:21.440Z,102943.84
2018-09-25T12:42:55.033Z,102949.28
2018-09-25T12:45:28.428Z,102944.11
2018-09-25T12:48:01.921Z,102934.81
2018-09-25T12:50:35.340Z,102926.37
2018-09-25T12:53:08.902Z,102927.68
2018-09-25T12:55:42.338Z,102912.50
2018-09-25T12:58:15.924Z,102914.15
2018-09-25T13:00:49.398Z,102908.75
2018-09-25T13:03:22.917Z,102915.16
2018-09-25T13:05:56.345Z,102909.13
2018-09-25T13:08:29.717Z,102908.34
2018-09-25T13:11:03.145Z,102909.08
2018-09-25T13:13:36.668Z,102909.50
2018-09-25T13:16:09.988Z,102904.77
2018-09-25T13:18:43.265Z,102903.75
2018-09-25T13:21:16.682Z,102897.67
2018-09-25T13:23:50.261Z,102902.80
2018-09-25T13:26:23.665Z,102903.20
2018-09-25T13:28:57.012Z,102900.38
2018-09-25T13:31:30.496Z,102904.81
2018-09-25T13:34:04.029Z,102899.46
2018-09-25T13:36:37.532Z,102911.60
2018-09-25T13:39:13.509Z,102909.61
2018-09-25T13:41:47.268Z,102902.05
2018-09-25T13:44:20.618Z,102895.75
2018-09-25T13:46:54.200Z,102899.03
2018-09-25T13:49:27.745Z,102905.11
2018-09-25T13:52:01.092Z,102901.80
2018-09-25T13:54:34.423Z,102897.77
2018-09-25T13:57:07.769Z,102887.38
2018-09-25T13:59:41.435Z,102878.39
2018-09-25T14:02:14.975Z,102884.59
2018-09-25T14:04:48.352Z,102883.23
2018-09-25T14:07:21.868Z,102878.98
2018-09-25T14:09:55.357Z,102875.84
2018-09-25T14:12:28.874Z,102861.95
2018-09-25T14:15:02.398Z,102859.48
2018-09-25T14:17:35.849Z,102860.22
2018-09-25T14:20:09.468Z,102859.73
2018-09-25T14:22:42.918Z,102858.91
2018-09-25T14:25:16.322Z,102859.89
2018-09-25T14:27:49.712Z,102857.39
2018-09-25T14:30:23.132Z,102850.67
2018-09-25T14:32:56.520Z,102857.78
2018-09-25T14:35:29.891Z,102856.80
2018-09-25T14:38:03.313Z,102849.70
2018-09-25T14:40:36.754Z,102843.27
2018-09-25T14:43:10.164Z,102838.23
2018-09-25T14:45:43.637Z,102839.58
2018-09-25T14:48:17.132Z,102844.16
2018-09-25T14:50:50.784Z,102846.04
2018-09-25T14:53:24.270Z,102833.66
2018-09-25T14:55:57.802Z,102839.40
2018-09-25T14:58:31.205Z,102833.52
2018-09-25T15:01:04.861Z,102831.59
2018-09-25T15:03:38.557Z,102840.19
2018-09-25T15:06:12.170Z,102830.43
2018-09-25T15:08:45.653Z,102834.36
2018-09-25T15:11:19.041Z,102839.66
2018-09-25T15:13:52.554Z,102832.97
2018-09-25T15:16:26.145Z,102836.59
2018-09-25T15:18:59.567Z,102833.14
2018-09-25T15:21:33.303Z,102840.61
2018-09-25T15:24:06.756Z,102844.51
2018-09-25T15:26:40.133Z,102844.20
2018-09-25T15:29:13.516Z,102841.17
2018-09-25T15:31:47.025Z,102844.79
2018-09-25T15:34:20.585Z,102847.67
2018-09-25T15:36:54.129Z,102847.59
2018-09-25T15:39:27.622Z,102847.47
2018-09-25T15:42:01.004Z,102851.61
2018-09-25T15:44:34.405Z,102856.69
2018-09-25T15:47:07.764Z,102863.67
2018-09-25T15:49:41.316Z,102858.40
2018-09-25T15:52:14.717Z,102860.14
2018-09-25T15:54:48.279Z,102861.84
2018-09-25T15:57:21.632Z,102860.34
2018-09-25T15:59:55.157Z,102858.80
2018-09-25T16:02:28.741Z,102851.13
2018-09-25T16:05:02.261Z,102852.50
2018-09-25T16:07:35.925Z,102851.73
2018-09-25T16:10:09.246Z,102850.67
2018-09-25T16:12:42.705Z,102852.09
2018-09-25T16:15:16.142Z,102849.00
2018-09-25T16:17:49.494Z,102848.72
2018-09-25T16:20:22.917Z,102836.48
2018-09-25T16:22:56.545Z,102834.45
2018-09-25T16:25:29.924Z,102842.38
2018-09-25T16:28:03.543Z,102841.30
2018-09-25T16:30:37.081Z,102846.63
2018-09-25T16:33:10.498Z,102854.00
2018-09-25T16:35:44.053Z,102860.39
2018-09-25T16:38:17.410Z,102871.27
2018-09-25T16:40:50.938Z,102874.54
2018-09-25T16:43:24.609Z,102876.05
2018-09-25T16:45:58.148Z,102871.66
2018-09-25T16:48:31.653Z,102869.02
2018-09-25T16:51:05.013Z,102869.88
2018-09-25T16:53:38.413Z,102867.37
2018-09-25T16:56:11.919Z,102869.57
2018-09-25T16:58:45.320Z,102869.57
2018-09-25T17:01:18.689Z,102872.55
2018-09-25T17:03:52.084Z,102872.24
2018-09-25T17:06:25.496Z,102872.98
2018-09-25T17:08:59.006Z,102874.44
2018-09-25T17:11:32.221Z,102873.22
2018-09-25T17:14:05.616Z,102878.68
2018-09-25T17:16:38.997Z,102871.88
2018-09-25T17:19:18.285Z,102867.53
2018-09-25T17:21:51.849Z,102862.50
2018-09-25T17:24:25.344Z,102864.17
2018-09-25T17:26:58.693Z,102862.37
2018-09-25T17:29:32.261Z,102865.89
2018-09-25T17:32:05.718Z,102859.23
2018-09-25T17:34:39.051Z,102847.37
2018-09-25T17:37:12.539Z,102845.88
2018-09-25T17:39:45.881Z,102829.63
2018-09-25T17:42:19.284Z,102816.78
2018-09-25T17:44:52.708Z,102816.30
2018-09-25T17:47:26.260Z,102809.91
2018-09-25T17:49:59.712Z,102804.57
2018-09-25T17:52:33.180Z,102802.48
2018-09-25T17:55:06.854Z,102803.59
2018-09-25T17:57:40.284Z,102803.13
2018-09-25T18:00:13.801Z,102804.97
2018-09-25T18:02:47.307Z,102802.28
2018-09-25T18:05:20.922Z,102807.56
2018-09-25T18:07:54.313Z,102809.75
2018-09-25T18:10:27.789Z,102814.03
2018-09-25T18:13:01.466Z,102814.38
2018-09-25T18:15:35.040Z,102814.21
2018-09-25T18:18:08.405Z,102821.05
2018-09-25T18:20:41.871Z,102821.91
2018-09-25T18:23:15.205Z,102831.84
2018-09-25T18:25:48.604Z,102822.67
2018-09-25T18:28:21.937Z,102824.00
2018-09-25T18:30:55.388Z,102823.86
2018-09-25T18:33:28.898Z,102826.91
2018-09-25T18:36:02.372Z,102820.25
2018-09-25T18:38:35.948Z,102818.72
2018-09-25T18:41:09.665Z,102828.19
2018-09-25T18:43:43.227Z,102827.13
2018-09-25T18:46:16.592Z,102833.19
2018-09-25T18:48:50.058Z,102834.23
2018-09-25T18:51:23.525Z,102837.97
2018-09-25T18:53:57.077Z,102843.28
2018-09-25T18:56:30.809Z,102837.92
2018-09-25T18:59:04.360Z,102837.84
2018-09-25T19:01:38.016Z,102832.27
2018-09-25T19:04:11.681Z,102831.76
2018-09-25T19:06:45.034Z,102839.59
2018-09-25T19:09:18.456Z,102848.89
2018-09-25T19:11:52.125Z,102841.49
2018-09-25T19:14:25.537Z,102848.48
2018-09-25T19:16:59.018Z,102838.82
2018-09-25T19:19:32.376Z,102846.05
2018-09-25T19:22:05.909Z,102840.74
2018-09-25T19:24:39.416Z,102840.81
2018-09-25T19:27:12.922Z,102849.27
2018-09-25T19:29:46.288Z,102839.45
2018-09-25T19:32:19.664Z,102838.16
2018-09-25T19:34:53.106Z,102840.61
2018-09-25T19:37:26.512Z,102839.86
2018-09-25T19:40:00.030Z,102838.30
2018-09-25T19:42:33.596Z,102835.69
2018-09-25T19:45:06.975Z,102828.57
2018-09-25T19:47:40.625Z,102828.64
2018-09-25T19:50:14.073Z,102828.22
2018-09-25T19:52:47.593Z,102835.09
2018-09-25T19:55:20.948Z,102831.55
2018-09-25T19:57:54.381Z,102827.69
2018-09-25T20:00:27.993Z,102818.89
2018-09-25T20:03:01.503Z,102808.15
2018-09-25T20:05:35.081Z,102800.94
2018-09-25T20:08:08.678Z,102804.91
2018-09-25T20:10:41.975Z,102802.41
2018-09-25T20:13:15.529Z,102796.51
2018-09-25T20:15:48.919Z,102803.16
2018-09-25T20:18:22.403Z,102819.48
2018-09-25T20:20:55.811Z,102805.22
2018-09-25T20:23:29.149Z,102801.08
2018-09-25T20:26:02.574Z,102802.77
2018-09-25T20:28:36.011Z,102798.07
2018-09-25T20:31:09.394Z,102803.42
2018-09-25T20:33:42.775Z,102794.72
2018-09-25T20:36:16.119Z,102796.19
2018-09-25T20:38:49.458Z,102797.87
2018-09-25T20:41:22.864Z,102795.22
2018-09-25T20:43:56.430Z,102800.89
2018-09-25T20:46:29.743Z,102803.61
2018-09-25T20:49:03.105Z,102806.19
2018-09-25T20:51:36.436Z,102801.85
2018-09-25T20:54:09.983Z,102805.79
2018-09-25T20:56:43.495Z,102795.13
2018-09-25T20:59:16.809Z,102791.16
2018-09-25T21:01:50.404Z,102801.45
2018-09-25T21:04:23.872Z,102794.88
2018-09-25T21:06:57.233Z,102801.49
2018-09-25T21:09:30.737Z,102809.86
2018-09-25T21:12:04.254Z,102810.03
2018-09-25T21:14:37.849Z,102812.54
2018-09-25T21:17:11.581Z,102814.00
2018-09-25T21:19:45.047Z,102814.23
2018-09-25T21:22:18.546Z,102815.22
2018-09-25T21:24:52.064Z,102805.09
2018-09-25T21:27:25.477Z,102806.13
2018-09-25T21:29:58.820Z,102808.84
2018-09-25T21:32:32.208Z,102805.80
2018-09-25T21:35:05.733Z,102805.78
2018-09-25T21:37:39.097Z,102806.05
2018-09-25T21:40:12.696Z,102792.78
2018-09-25T21:42:45.944Z,102780.12
2018-09-25T21:45:19.322Z,102775.26
2018-09-25T21:47:52.819Z,102768.22
2018-09-25T21:50:26.185Z,102757.89
2018-09-25T21:52:59.573Z,102758.63
2018-09-25T21:55:32.898Z,102750.33
2018-09-25T21:58:06.281Z,102741.58
2018-09-25T22:00:39.541Z,102736.13
2018-09-25T22:03:12.917Z,102735.20
2018-09-25T22:05:46.495Z,102732.19
2018-09-25T22:08:19.848Z,102741.44
2018-09-25T22:10:53.301Z,102732.65
2018-09-25T22:13:26.861Z,102732.28
2018-09-25T22:16:00.556Z,102747.95
2018-09-25T22:18:33.988Z,102747.46
2018-09-25T22:21:07.492Z,102741.78
2018-09-25T22:23:40.994Z,102738.80
2018-09-25T22:26:14.509Z,102738.30
2018-09-25T22:28:47.992Z,102728.91
2018-09-25T22:31:21.293Z,102740.26
2018-09-25T22:33:54.757Z,102745.19
2018-09-25T22:36:28.119Z,102749.25
2018-09-25T22:39:01.654Z,102738.34
2018-09-25T22:41:35.179Z,102739.77
2018-09-25T22:44:08.652Z,102722.01
2018-09-25T22:46:42.160Z,102725.34
2018-09-25T22:49:15.501Z,102712.20
2018-09-25T22:51:49.114Z,102717.95
2018-09-25T22:54:22.725Z,102722.91
2018-09-25T22:56:56.257Z,102714.82
2018-09-25T22:59:29.761Z,102717.73
2018-09-25T23:02:03.323Z,102717.58
2018-09-25T23:04:36.659Z,102723.88
2018-09-25T23:07:09.944Z,102731.72
2018-09-25T23:09:43.345Z,102719.28
2018-09-25T23:12:16.789Z,102714.52
2018-09-25T23:14:50.333Z,102707.87
2018-09-25T23:17:23.780Z,102705.73
2018-09-25T23:19:57.185Z,102703.03
2018-09-25T23:22:30.548Z,102706.21
2018-09-25T23:25:04.136Z,102703.38
2018-09-25T23:27:37.541Z,102706.79
2018-09-25T23:30:10.847Z,102704.28
2018-09-25T23:32:44.352Z,102696.72
2018-09-25T23:35:17.722Z,102694.27
2018-09-25T23:37:51.067Z,102693.59
2018-09-25T23:42:31.567Z,102683.94
2018-09-25T23:46:05.893Z,102678.30
2018-09-25T23:48:38.518Z,102678.47
2018-09-25T23:51:10.837Z,102667.75
2018-09-25T23:53:44.605Z,102665.65
2018-09-25T23:57:18.932Z,102669.02
2018-09-25T23:59:51.561Z,102679.37
